Preview an experimental upcoming version of this site at Beta.AviationWeather.gov

METAR Data
IDs: Format: Raw Decoded Include TAF

Data at: 1411 UTC 30 Sep 2023

KPEZ 301355Z AUTO 07004KT 10SM SCT019 27/23 A3004 RMK AO2 T02650228